Terminal Aerodrome Forecast
Issued by NWS Boston, MA

Home | Current Version | Previous Version | Text Only | Print | Product List | Glossary On
Versions: 1 2 3 4 5 6 7 8 9 10 11 12 13 14 15 16 17 18 19 20 21 22 23 24 25 26 27 28 29 30 31 32 33 34 35
000
FTUS41 KBOX 261129
TAFORH
TAF
KORH 261129Z 2612/2712 04006KT P6SM BKN110
     FM261800 05007KT P6SM OVC015
     FM262000 05008KT 3SM -SHSN OVC025
     FM270000 04012KT 1/2SM SN OVC015
     FM270500 03014G22KT 1/2SM SN OVC010
     FM270600 03015G24KT 1/4SM +SN OVC010 WS020/04040KT
     FM270900 01017G31KT 1/4SM +SN BLSN OVC010 WS020/03045KT
     FM271100 01018G28KT 1/4SM +SN OVC010 WS020/02045KT=

USA.gov is the U.S. government's official web portal to all federal, state and local government web resources and services.